sensor_id;sensor_type;location;lat;lon;timestamp;pressure;altitude;pressure_sealevel;temperature;humidity
73338;BME280;61575;49.908;35.556;2024-02-26T00:00:08;100358.09;;;-2.21;81.08
73338;BME280;61575;49.908;35.556;2024-02-26T00:03:11;100365.84;;;-2.18;80.96
73338;BME280;61575;49.908;35.556;2024-02-26T00:06:13;100357.03;;;-2.17;80.88
73338;BME280;61575;49.908;35.556;2024-02-26T00:09:15;100360.78;;;-2.22;81.16
73338;BME280;61575;49.908;35.556;2024-02-26T00:12:17;100361.56;;;-2.20;81.22
73338;BME280;61575;49.908;35.556;2024-02-26T00:15:19;100357.38;;;-2.24;81.50
73338;BME280;61575;49.908;35.556;2024-02-26T00:18:22;100350.59;;;-2.30;81.31
73338;BME280;61575;49.908;35.556;2024-02-26T00:21:24;100353.31;;;-2.31;81.92
73338;BME280;61575;49.908;35.556;2024-02-26T00:24:26;100342.91;;;-2.34;81.50
73338;BME280;61575;49.908;35.556;2024-02-26T00:27:28;100342.13;;;-2.36;82.45
73338;BME280;61575;49.908;35.556;2024-02-26T00:30:30;100336.88;;;-2.36;82.40
73338;BME280;61575;49.908;35.556;2024-02-26T00:33:33;100326.69;;;-2.44;82.84
73338;BME280;61575;49.908;35.556;2024-02-26T00:36:35;100316.69;;;-2.36;82.35
73338;BME280;61575;49.908;35.556;2024-02-26T00:39:37;100315.91;;;-2.38;82.22
73338;BME280;61575;49.908;35.556;2024-02-26T00:42:39;100318.59;;;-2.39;82.83
73338;BME280;61575;49.908;35.556;2024-02-26T00:45:47;100322.34;;;-2.45;83.19
73338;BME280;61575;49.908;35.556;2024-02-26T00:48:49;100313.19;;;-2.36;82.42
73338;BME280;61575;49.908;35.556;2024-02-26T00:51:52;100320.44;;;-2.42;82.84
73338;BME280;61575;49.908;35.556;2024-02-26T00:54:54;100324.06;;;-2.44;82.85
73338;BME280;61575;49.908;35.556;2024-02-26T00:57:56;100317.09;;;-2.45;82.94
73338;BME280;61575;49.908;35.556;2024-02-26T01:00:58;100323.22;;;-2.45;82.65
73338;BME280;61575;49.908;35.556;2024-02-26T01:04:01;100329.13;;;-2.39;82.32
73338;BME280;61575;49.908;35.556;2024-02-26T01:07:03;100329.97;;;-2.39;82.65
73338;BME280;61575;49.908;35.556;2024-02-26T01:10:06;100322.00;;;-2.37;82.44
73338;BME280;61575;49.908;35.556;2024-02-26T01:13:08;100316.63;;;-2.34;82.07
73338;BME280;61575;49.908;35.556;2024-02-26T01:16:10;100321.03;;;-2.35;82.55
73338;BME280;61575;49.908;35.556;2024-02-26T01:19:12;100324.78;;;-2.41;82.78
73338;BME280;61575;49.908;35.556;2024-02-26T01:22:15;100307.88;;;-2.35;82.41
73338;BME280;61575;49.908;35.556;2024-02-26T01:25:17;100303.66;;;-2.39;82.43
73338;BME280;61575;49.908;35.556;2024-02-26T01:28:20;100303.66;;;-2.39;82.03
73338;BME280;61575;49.908;35.556;2024-02-26T01:31:22;100305.44;;;-2.39;81.93
73338;BME280;61575;49.908;35.556;2024-02-26T01:34:24;100299.97;;;-2.35;82.15
73338;BME280;61575;49.908;35.556;2024-02-26T01:37:26;100303.59;;;-2.37;81.64
73338;BME280;61575;49.908;35.556;2024-02-26T01:40:28;100300.81;;;-2.34;81.99
73338;BME280;61575;49.908;35.556;2024-02-26T01:43:31;100288.88;;;-2.42;82.45
73338;BME280;61575;49.908;35.556;2024-02-26T01:46:34;100293.56;;;-2.48;82.33
73338;BME280;61575;49.908;35.556;2024-02-26T01:49:39;100288.03;;;-2.42;82.44
73338;BME280;61575;49.908;35.556;2024-02-26T01:52:41;100294.13;;;-2.42;82.23
73338;BME280;61575;49.908;35.556;2024-02-26T01:55:44;100295.06;;;-2.43;82.06
73338;BME280;61575;49.908;35.556;2024-02-26T01:58:47;100293.00;;;-2.36;81.60
73338;BME280;61575;49.908;35.556;2024-02-26T02:01:54;100296.19;;;-2.48;81.91
73338;BME280;61575;49.908;35.556;2024-02-26T02:04:56;100287.38;;;-2.47;82.53
73338;BME280;61575;49.908;35.556;2024-02-26T02:07:59;100286.59;;;-2.49;82.50
73338;BME280;61575;49.908;35.556;2024-02-26T02:11:01;100286.47;;;-2.46;82.58
73338;BME280;61575;49.908;35.556;2024-02-26T02:14:03;100283.69;;;-2.43;82.01
73338;BME280;61575;49.908;35.556;2024-02-26T02:17:05;100300.47;;;-2.46;82.19
73338;BME280;61575;49.908;35.556;2024-02-26T02:20:17;100286.53;;;-2.48;82.63
73338;BME280;61575;49.908;35.556;2024-02-26T02:23:20;100281.25;;;-2.48;82.10
73338;BME280;61575;49.908;35.556;2024-02-26T02:26:22;100283.31;;;-2.54;82.49
73338;BME280;61575;49.908;35.556;2024-02-26T02:29:24;100278.63;;;-2.48;82.62
73338;BME280;61575;49.908;35.556;2024-02-26T02:32:27;100278.19;;;-2.57;82.64
73338;BME280;61575;49.908;35.556;2024-02-26T02:35:30;100280.03;;;-2.59;82.91
73338;BME280;61575;49.908;35.556;2024-02-26T02:38:33;100279.97;;;-2.58;82.53
73338;BME280;61575;49.908;35.556;2024-02-26T02:41:35;100273.94;;;-2.60;82.85
73338;BME280;61575;49.908;35.556;2024-02-26T02:44:38;100288.06;;;-2.62;82.78
73338;BME280;61575;49.908;35.556;2024-02-26T02:47:40;100281.03;;;-2.62;82.33
73338;BME280;61575;49.908;35.556;2024-02-26T02:50:42;100292.41;;;-2.61;82.30
73338;BME280;61575;49.908;35.556;2024-02-26T02:53:44;100296.59;;;-2.57;82.44
73338;BME280;61575;49.908;35.556;2024-02-26T02:56:46;100287.78;;;-2.56;82.04
73338;BME280;61575;49.908;35.556;2024-02-26T02:59:48;100280.03;;;-2.59;82.13
73338;BME280;61575;49.908;35.556;2024-02-26T03:02:50;100278.34;;;-2.60;82.31
73338;BME280;61575;49.908;35.556;2024-02-26T03:05:52;100281.88;;;-2.61;82.80
73338;BME280;61575;49.908;35.556;2024-02-26T03:08:54;100278.59;;;-2.66;82.72
73338;BME280;61575;49.908;35.556;2024-02-26T03:11:57;100275.06;;;-2.65;82.67
73338;BME280;61575;49.908;35.556;2024-02-26T03:14:59;100285.78;;;-2.70;82.85
73338;BME280;61575;49.908;35.556;2024-02-26T03:18:04;100279.72;;;-2.72;82.76
73338;BME280;61575;49.908;35.556;2024-02-26T03:21:07;100288.91;;;-2.62;82.45
73338;BME280;61575;49.908;35.556;2024-02-26T03:24:09;100281.38;;;-2.69;82.53
73338;BME280;61575;49.908;35.556;2024-02-26T03:27:12;100291.75;;;-2.66;82.47
73338;BME280;61575;49.908;35.556;2024-02-26T03:30:14;100283.16;;;-2.70;82.72
73338;BME280;61575;49.908;35.556;2024-02-26T03:33:17;100284.00;;;-2.69;82.53
73338;BME280;61575;49.908;35.556;2024-02-26T03:36:19;100275.06;;;-2.65;82.18
73338;BME280;61575;49.908;35.556;2024-02-26T03:39:23;100284.72;;;-2.66;82.29
73338;BME280;61575;49.908;35.556;2024-02-26T03:42:25;100279.72;;;-2.72;82.36
73338;BME280;61575;49.908;35.556;2024-02-26T03:45:27;100282.63;;;-2.78;82.33
73338;BME280;61575;49.908;35.556;2024-02-26T03:48:29;100283.41;;;-2.76;82.14
73338;BME280;61575;49.908;35.556;2024-02-26T03:51:32;100282.69;;;-2.80;81.99
73338;BME280;61575;49.908;35.556;2024-02-26T03:54:34;100269.69;;;-2.83;82.19
73338;BME280;61575;49.908;35.556;2024-02-26T03:57:36;100268.19;;;-2.88;82.97
73338;BME280;61575;49.908;35.556;2024-02-26T04:00:38;100256.53;;;-2.83;82.67
73338;BME280;61575;49.908;35.556;2024-02-26T04:03:41;100260.94;;;-2.83;82.68
73338;BME280;61575;49.908;35.556;2024-02-26T04:06:46;100262.91;;;-2.88;82.26
73338;BME280;61575;49.908;35.556;2024-02-26T04:09:48;100260.50;;;-2.93;82.84
73338;BME280;61575;49.908;35.556;2024-02-26T04:12:50;100255.97;;;-2.89;82.77
73338;BME280;61575;49.908;35.556;2024-02-26T04:15:52;100254.38;;;-2.93;82.49
73338;BME280;61575;49.908;35.556;2024-02-26T04:18:55;100261.22;;;-2.89;82.63
73338;BME280;61575;49.908;35.556;2024-02-26T04:21:57;100260.94;;;-2.83;82.56
73338;BME280;61575;49.908;35.556;2024-02-26T04:24:59;100263.72;;;-2.86;82.34
73338;BME280;61575;49.908;35.556;2024-02-26T04:28:01;100268.13;;;-2.87;82.50
73338;BME280;61575;49.908;35.556;2024-02-26T04:31:03;100265.47;;;-2.87;82.24
73338;BME280;61575;49.908;35.556;2024-02-26T04:34:05;100264.28;;;-2.80;82.35
73338;BME280;61575;49.908;35.556;2024-02-26T04:37:07;100268.13;;;-2.87;81.65
73338;BME280;61575;49.908;35.556;2024-02-26T04:40:09;100264.44;;;-2.83;82.29
73338;BME280;61575;49.908;35.556;2024-02-26T04:43:11;100258.66;;;-2.91;81.79
73338;BME280;61575;49.908;35.556;2024-02-26T04:46:13;100259.50;;;-2.90;82.17
73338;BME280;61575;49.908;35.556;2024-02-26T04:49:15;100262.19;;;-2.92;81.84
73338;BME280;61575;49.908;35.556;2024-02-26T04:52:18;100261.28;;;-2.91;82.23
73338;BME280;61575;49.908;35.556;2024-02-26T04:55:21;100259.72;;;-2.95;82.19
73338;BME280;61575;49.908;35.556;2024-02-26T04:58:23;100251.69;;;-2.92;81.87
73338;BME280;61575;49.908;35.556;2024-02-26T05:01:25;100253.41;;;-2.91;82.33
73338;BME280;61575;49.908;35.556;2024-02-26T05:04:27;100260.09;;;-2.84;82.40
73338;BME280;61575;49.908;35.556;2024-02-26T05:07:29;100261.66;;;-2.80;81.71
73338;BME280;61575;49.908;35.556;2024-02-26T05:10:31;100270.34;;;-2.78;81.14
73338;BME280;61575;49.908;35.556;2024-02-26T05:13:33;100274.34;;;-2.69;81.25
73338;BME280;61575;49.908;35.556;2024-02-26T05:16:35;100281.31;;;-2.68;81.38
73338;BME280;61575;49.908;35.556;2024-02-26T05:19:38;100269.94;;;-2.68;81.38
73338;BME280;61575;49.908;35.556;2024-02-26T05:22:40;100264.94;;;-2.75;80.87
73338;BME280;61575;49.908;35.556;2024-02-26T05:25:42;100274.03;;;-2.82;81.33
73338;BME280;61575;49.908;35.556;2024-02-26T05:28:44;100271.00;;;-2.72;81.37
73338;BME280;61575;49.908;35.556;2024-02-26T05:31:46;100288.47;;;-2.71;81.04
73338;BME280;61575;49.908;35.556;2024-02-26T05:34:48;100280.84;;;-2.78;80.63
73338;BME280;61575;49.908;35.556;2024-02-26T05:37:50;100285.69;;;-2.68;80.53
73338;BME280;61575;49.908;35.556;2024-02-26T05:40:52;100280.31;;;-2.65;80.04
73338;BME280;61575;49.908;35.556;2024-02-26T05:43:54;100283.19;;;-2.51;79.94
73338;BME280;61575;49.908;35.556;2024-02-26T05:46:56;100285.59;;;-2.47;79.90
73338;BME280;61575;49.908;35.556;2024-02-26T05:49:58;100279.28;;;-2.43;79.10
73338;BME280;61575;49.908;35.556;2024-02-26T05:53:02;100281.91;;;-2.43;79.48
73338;BME280;61575;49.908;35.556;2024-02-26T05:56:06;100288.59;;;-2.35;78.83
73338;BME280;61575;49.908;35.556;2024-02-26T05:59:08;100286.97;;;-2.38;78.55
73338;BME280;61575;49.908;35.556;2024-02-26T06:02:10;100291.03;;;-2.31;78.63
73338;BME280;61575;49.908;35.556;2024-02-26T06:05:12;100284.97;;;-2.33;78.53
73338;BME280;61575;49.908;35.556;2024-02-26T06:08:14;100295.84;;;-2.41;78.30
73338;BME280;61575;49.908;35.556;2024-02-26T06:11:16;100302.09;;;-2.43;78.08
73338;BME280;61575;49.908;35.556;2024-02-26T06:14:18;100292.88;;;-2.33;78.17
73338;BME280;61575;49.908;35.556;2024-02-26T06:17:21;100293.88;;;-2.35;77.41
73338;BME280;61575;49.908;35.556;2024-02-26T06:20:23;100287.19;;;-2.24;77.35
73338;BME280;61575;49.908;35.556;2024-02-26T06:23:25;100289.75;;;-2.22;77.24
73338;BME280;61575;49.908;35.556;2024-02-26T06:26:27;100289.69;;;-2.21;77.19
73338;BME280;61575;49.908;35.556;2024-02-26T06:29:35;100289.03;;;-2.26;77.14
73338;BME280;61575;49.908;35.556;2024-02-26T06:32:37;100302.84;;;-2.21;77.11
73338;BME280;61575;49.908;35.556;2024-02-26T06:35:39;100297.78;;;-2.06;76.95
73338;BME280;61575;49.908;35.556;2024-02-26T06:38:41;100292.31;;;-2.02;76.57
73338;BME280;61575;49.908;35.556;2024-02-26T06:41:44;100297.84;;;-1.89;76.34
73338;BME280;61575;49.908;35.556;2024-02-26T06:44:48;100292.16;;;-1.80;75.88
73338;BME280;61575;49.908;35.556;2024-02-26T06:47:50;100288.38;;;-1.74;76.11
73338;BME280;61575;49.908;35.556;2024-02-26T06:50:52;100294.91;;;-1.64;75.50
73338;BME280;61575;49.908;35.556;2024-02-26T06:53:54;100289.56;;;-1.63;75.31
73338;BME280;61575;49.908;35.556;2024-02-26T06:56:56;100296.53;;;-1.62;74.67
73338;BME280;61575;49.908;35.556;2024-02-26T06:59:58;100287.31;;;-1.70;75.15
73338;BME280;61575;49.908;35.556;2024-02-26T07:03:01;100275.31;;;-1.59;75.21
73338;BME280;61575;49.908;35.556;2024-02-26T07:06:04;100278.44;;;-1.51;74.79
73338;BME280;61575;49.908;35.556;2024-02-26T07:09:06;100277.72;;;-1.54;74.38
73338;BME280;61575;49.908;35.556;2024-02-26T07:12:08;100273.88;;;-1.47;74.54
73338;BME280;61575;49.908;35.556;2024-02-26T07:15:10;100258.38;;;-1.36;74.32
73338;BME280;61575;49.908;35.556;2024-02-26T07:18:12;100267.13;;;-1.35;74.04
73338;BME280;61575;49.908;35.556;2024-02-26T07:21:14;100259.56;;;-1.24;73.68
73338;BME280;61575;49.908;35.556;2024-02-26T07:24:16;100269.53;;;-1.31;73.02
73338;BME280;61575;49.908;35.556;2024-02-26T07:27:19;100266.53;;;-1.23;73.02
73338;BME280;61575;49.908;35.556;2024-02-26T07:30:23;100257.31;;;-1.15;72.83
73338;BME280;61575;49.908;35.556;2024-02-26T07:33:26;100258.59;;;-1.06;72.49
73338;BME280;61575;49.908;35.556;2024-02-26T07:36:28;100252.88;;;-1.14;71.90
73338;BME280;61575;49.908;35.556;2024-02-26T07:39:30;100253.00;;;-1.00;71.75
73338;BME280;61575;49.908;35.556;2024-02-26T07:42:32;100254.06;;;-0.87;71.26
73338;BME280;61575;49.908;35.556;2024-02-26T07:45:34;100246.41;;;-0.58;71.25
73338;BME280;61575;49.908;35.556;2024-02-26T07:48:38;100245.31;;;-0.54;70.53
73338;BME280;61575;49.908;35.556;2024-02-26T07:51:40;100248.59;;;-0.33;69.83
73338;BME280;61575;49.908;35.556;2024-02-26T07:54:42;100243.50;;;-0.21;68.84
73338;BME280;61575;49.908;35.556;2024-02-26T07:57:44;100241.03;;;-0.24;68.43
73338;BME280;61575;49.908;35.556;2024-02-26T08:00:46;100230.72;;;0.03;68.18
73338;BME280;61575;49.908;35.556;2024-02-26T08:03:48;100240.41;;;0.34;67.52
73338;BME280;61575;49.908;35.556;2024-02-26T08:06:51;100237.56;;;0.83;66.51
73338;BME280;61575;49.908;35.556;2024-02-26T08:09:53;100243.00;;;1.10;65.68
73338;BME280;61575;49.908;35.556;2024-02-26T08:12:55;100236.13;;;1.36;63.84
73338;BME280;61575;49.908;35.556;2024-02-26T08:15:58;100238.88;;;1.48;63.19
73338;BME280;61575;49.908;35.556;2024-02-26T08:19:01;100236.97;;;1.65;62.33
73338;BME280;61575;49.908;35.556;2024-02-26T08:22:04;100241.78;;;1.72;63.00
73338;BME280;61575;49.908;35.556;2024-02-26T08:25:06;100240.81;;;1.88;62.40
73338;BME280;61575;49.908;35.556;2024-02-26T08:28:11;100233.84;;;2.13;61.49
73338;BME280;61575;49.908;35.556;2024-02-26T08:31:15;100227.06;;;2.36;60.58
73338;BME280;61575;49.908;35.556;2024-02-26T08:34:17;100227.09;;;2.89;59.98
73338;BME280;61575;49.908;35.556;2024-02-26T08:37:19;100235.16;;;2.87;59.13
73338;BME280;61575;49.908;35.556;2024-02-26T08:40:21;100232.00;;;3.07;58.51
73338;BME280;61575;49.908;35.556;2024-02-26T08:43:23;100231.47;;;3.15;58.03
73338;BME280;61575;49.908;35.556;2024-02-26T08:46:25;100222.88;;;3.24;57.48
73338;BME280;61575;49.908;35.556;2024-02-26T08:49:27;100227.22;;;3.38;56.43
73338;BME280;61575;49.908;35.556;2024-02-26T08:52:29;100234.66;;;3.07;55.88
73338;BME280;61575;49.908;35.556;2024-02-26T08:55:31;100233.38;;;3.26;56.07
73338;BME280;61575;49.908;35.556;2024-02-26T08:58:34;100236.91;;;3.26;56.08
73338;BME280;61575;49.908;35.556;2024-02-26T09:01:36;100239.66;;;3.37;55.36
73338;BME280;61575;49.908;35.556;2024-02-26T09:04:38;100239.97;;;3.58;55.15
73338;BME280;61575;49.908;35.556;2024-02-26T09:07:41;100243.44;;;3.71;54.97
73338;BME280;61575;49.908;35.556;2024-02-26T09:10:43;100250.41;;;3.98;54.36
73338;BME280;61575;49.908;35.556;2024-02-26T09:13:45;100243.75;;;4.16;53.85
73338;BME280;61575;49.908;35.556;2024-02-26T09:16:47;100234.19;;;4.14;53.97
73338;BME280;61575;49.908;35.556;2024-02-26T09:19:51;100226.78;;;4.30;53.88
73338;BME280;61575;49.908;35.556;2024-02-26T09:22:54;100228.97;;;4.60;53.78
73338;BME280;61575;49.908;35.556;2024-02-26T09:25:56;100229.78;;;4.49;52.97
73338;BME280;61575;49.908;35.556;2024-02-26T09:28:59;100229.94;;;4.35;52.62
73338;BME280;61575;49.908;35.556;2024-02-26T09:32:01;100229.00;;;4.36;52.36
73338;BME280;61575;49.908;35.556;2024-02-26T09:35:03;100223.84;;;4.22;52.31
73338;BME280;61575;49.908;35.556;2024-02-26T09:38:05;100216.47;;;4.25;52.28
73338;BME280;61575;49.908;35.556;2024-02-26T09:41:14;100223.41;;;4.04;52.41
73338;BME280;61575;49.908;35.556;2024-02-26T09:44:21;100202.69;;;4.20;52.77
73338;BME280;61575;49.908;35.556;2024-02-26T09:47:23;100196.13;;;4.13;52.31
73338;BME280;61575;49.908;35.556;2024-02-26T09:50:29;100193.34;;;4.15;52.63
73338;BME280;61575;49.908;35.556;2024-02-26T09:53:31;100205.06;;;4.12;53.02
73338;BME280;61575;49.908;35.556;2024-02-26T09:56:36;100203.88;;;4.16;53.08
73338;BME280;61575;49.908;35.556;2024-02-26T09:59:48;100193.09;;;4.06;53.16
73338;BME280;61575;49.908;35.556;2024-02-26T10:02:51;100191.72;;;4.01;52.90
73338;BME280;61575;49.908;35.556;2024-02-26T10:05:53;100185.81;;;3.85;52.62
73338;BME280;61575;49.908;35.556;2024-02-26T10:08:57;100174.06;;;3.76;53.78
73338;BME280;61575;49.908;35.556;2024-02-26T10:12:03;100180.28;;;3.88;53.95
73338;BME280;61575;49.908;35.556;2024-02-26T10:15:06;100166.91;;;3.89;54.70
73338;BME280;61575;49.908;35.556;2024-02-26T10:18:09;100170.50;;;3.88;53.52
73338;BME280;61575;49.908;35.556;2024-02-26T10:21:11;100160.50;;;3.92;53.67
73338;BME280;61575;49.908;35.556;2024-02-26T10:24:14;100154.38;;;3.78;53.92
73338;BME280;61575;49.908;35.556;2024-02-26T10:27:16;100161.94;;;3.72;54.11
73338;BME280;61575;49.908;35.556;2024-02-26T10:30:20;100158.66;;;3.68;53.89
73338;BME280;61575;49.908;35.556;2024-02-26T10:33:24;100163.50;;;3.87;54.32
73338;BME280;61575;49.908;35.556;2024-02-26T10:36:26;100157.50;;;3.72;54.38
73338;BME280;61575;49.908;35.556;2024-02-26T10:39:49;100164.91;;;3.80;54.48
73338;BME280;61575;49.908;35.556;2024-02-26T10:42:51;100162.53;;;3.88;54.39
73338;BME280;61575;49.908;35.556;2024-02-26T10:45:56;100172.88;;;3.80;54.52
73338;BME280;61575;49.908;35.556;2024-02-26T10:48:58;100165.75;;;3.81;53.59
73338;BME280;61575;49.908;35.556;2024-02-26T10:52:02;100168.63;;;3.77;53.60
73338;BME280;61575;49.908;35.556;2024-02-26T10:55:06;100172.75;;;3.82;53.74
73338;BME280;61575;49.908;35.556;2024-02-26T10:58:09;100158.41;;;3.84;54.71
73338;BME280;61575;49.908;35.556;2024-02-26T11:01:12;100149.38;;;3.87;54.63
73338;BME280;61575;49.908;35.556;2024-02-26T11:04:15;100149.25;;;3.88;54.56
73338;BME280;61575;49.908;35.556;2024-02-26T11:07:18;100155.78;;;3.71;54.74
73338;BME280;61575;49.908;35.556;2024-02-26T11:10:20;100150.50;;;3.59;54.44
73338;BME280;61575;49.908;35.556;2024-02-26T11:13:27;100145.56;;;3.78;54.45
73338;BME280;61575;49.908;35.556;2024-02-26T11:16:32;100142.81;;;3.80;54.67
73338;BME280;61575;49.908;35.556;2024-02-26T11:19:37;100144.34;;;3.95;54.63
73338;BME280;61575;49.908;35.556;2024-02-26T11:22:40;100137.03;;;3.86;54.31
73338;BME280;61575;49.908;35.556;2024-02-26T11:25:42;100139.25;;;3.92;55.07
73338;BME280;61575;49.908;35.556;2024-02-26T11:28:45;100143.72;;;3.91;55.09
73338;BME280;61575;49.908;35.556;2024-02-26T11:31:48;100136.09;;;3.87;54.87
73338;BME280;61575;49.908;35.556;2024-02-26T11:34:51;100135.88;;;3.90;55.05
73338;BME280;61575;49.908;35.556;2024-02-26T11:37:56;100135.56;;;3.82;53.90
73338;BME280;61575;49.908;35.556;2024-02-26T11:40:58;100127.72;;;3.80;54.44
73338;BME280;61575;49.908;35.556;2024-02-26T11:44:02;100126.41;;;3.86;53.66
73338;BME280;61575;49.908;35.556;2024-02-26T11:47:11;100135.00;;;3.89;54.13
73338;BME280;61575;49.908;35.556;2024-02-26T11:50:56;100131.00;;;3.84;53.62
73338;BME280;61575;49.908;35.556;2024-02-26T11:53:57;100129.75;;;4.00;54.38
73338;BME280;61575;49.908;35.556;2024-02-26T11:57:01;100132.22;;;4.15;53.96
73338;BME280;61575;49.908;35.556;2024-02-26T12:03:08;100133.09;;;4.26;53.96
73338;BME280;61575;49.908;35.556;2024-02-26T12:06:12;100125.25;;;4.25;54.21
73338;BME280;61575;49.908;35.556;2024-02-26T12:09:31;100132.03;;;4.29;52.70
73338;BME280;61575;49.908;35.556;2024-02-26T12:12:34;100126.63;;;4.41;53.05
73338;BME280;61575;49.908;35.556;2024-02-26T12:15:38;100123.75;;;4.44;53.58
73338;BME280;61575;49.908;35.556;2024-02-26T12:18:41;100120.28;;;4.55;53.43
73338;BME280;61575;49.908;35.556;2024-02-26T12:21:51;100125.25;;;4.60;53.00
73338;BME280;61575;49.908;35.556;2024-02-26T12:25:00;100126.31;;;4.57;52.50
73338;BME280;61575;49.908;35.556;2024-02-26T12:28:04;100117.75;;;4.65;52.78
73338;BME280;61575;49.908;35.556;2024-02-26T12:31:07;100113.53;;;4.73;52.73
73338;BME280;61575;49.908;35.556;2024-02-26T12:34:10;100107.97;;;4.76;52.30
73338;BME280;61575;49.908;35.556;2024-02-26T12:37:12;100105.00;;;4.81;52.62
73338;BME280;61575;49.908;35.556;2024-02-26T12:40:15;100108.84;;;4.77;51.98
73338;BME280;61575;49.908;35.556;2024-02-26T12:43:17;100111.03;;;4.83;52.67
73338;BME280;61575;49.908;35.556;2024-02-26T12:46:20;100108.28;;;4.85;52.52
73338;BME280;61575;49.908;35.556;2024-02-26T12:49:22;100110.19;;;4.83;52.32
73338;BME280;61575;49.908;35.556;2024-02-26T12:52:28;100108.84;;;4.77;51.77
73338;BME280;61575;49.908;35.556;2024-02-26T12:55:30;100112.19;;;4.68;51.71
73338;BME280;61575;49.908;35.556;2024-02-26T12:58:37;100108.22;;;4.73;51.79
73338;BME280;61575;49.908;35.556;2024-02-26T13:01:40;100117.28;;;4.71;51.53
73338;BME280;61575;49.908;35.556;2024-02-26T13:04:43;100109.03;;;4.63;51.11
73338;BME280;61575;49.908;35.556;2024-02-26T13:07:46;100107.22;;;4.63;51.54
73338;BME280;61575;49.908;35.556;2024-02-26T13:10:51;100104.78;;;4.49;51.52
73338;BME280;61575;49.908;35.556;2024-02-26T13:13:55;100113.38;;;4.53;52.08
73338;BME280;61575;49.908;35.556;2024-02-26T13:16:57;100112.28;;;4.55;51.89
73338;BME280;61575;49.908;35.556;2024-02-26T13:19:59;100103.50;;;4.66;51.83
73338;BME280;61575;49.908;35.556;2024-02-26T13:23:06;100101.69;;;4.66;51.86
73338;BME280;61575;49.908;35.556;2024-02-26T13:26:12;100108.34;;;4.72;52.15
73338;BME280;61575;49.908;35.556;2024-02-26T13:29:18;100114.13;;;4.66;51.64
73338;BME280;61575;49.908;35.556;2024-02-26T13:32:21;100101.69;;;4.66;51.59
73338;BME280;61575;49.908;35.556;2024-02-26T13:35:23;100104.44;;;4.65;50.95
73338;BME280;61575;49.908;35.556;2024-02-26T13:38:25;100109.31;;;4.71;51.32
73338;BME280;61575;49.908;35.556;2024-02-26T13:41:27;100107.97;;;4.76;51.45
73338;BME280;61575;49.908;35.556;2024-02-26T13:44:30;100114.03;;;4.79;52.19
73338;BME280;61575;49.908;35.556;2024-02-26T13:47:33;100114.63;;;4.71;51.39
73338;BME280;61575;49.908;35.556;2024-02-26T13:50:35;100117.03;;;4.74;52.29
73338;BME280;61575;49.908;35.556;2024-02-26T13:53:37;100112.56;;;4.63;52.73
73338;BME280;61575;49.908;35.556;2024-02-26T13:56:39;100118.81;;;4.51;52.56
73338;BME280;61575;49.908;35.556;2024-02-26T13:59:41;100123.25;;;4.39;51.92
73338;BME280;61575;49.908;35.556;2024-02-26T14:02:44;100122.97;;;4.31;51.88
73338;BME280;61575;49.908;35.556;2024-02-26T14:05:46;100133.84;;;4.28;52.24
73338;BME280;61575;49.908;35.556;2024-02-26T14:08:49;100138.75;;;4.22;52.29
73338;BME280;61575;49.908;35.556;2024-02-26T14:11:52;100136.56;;;4.16;52.24
73338;BME280;61575;49.908;35.556;2024-02-26T14:14:54;100131.47;;;4.13;51.79
73338;BME280;61575;49.908;35.556;2024-02-26T14:17:57;100138.97;;;4.07;51.99
73338;BME280;61575;49.908;35.556;2024-02-26T14:20:59;100140.03;;;4.05;52.35
73338;BME280;61575;49.908;35.556;2024-02-26T14:24:02;100143.16;;;3.99;52.16
73338;BME280;61575;49.908;35.556;2024-02-26T14:27:04;100141.81;;;3.93;52.36
73338;BME280;61575;49.908;35.556;2024-02-26T14:30:06;100143.72;;;3.91;52.82
73338;BME280;61575;49.908;35.556;2024-02-26T14:33:09;100140.56;;;3.86;53.34
73338;BME280;61575;49.908;35.556;2024-02-26T14:36:12;100142.47;;;3.84;53.33
73338;BME280;61575;49.908;35.556;2024-02-26T14:39:14;100135.16;;;3.75;53.47
73338;BME280;61575;49.908;35.556;2024-02-26T14:42:16;100131.03;;;3.71;53.49
73338;BME280;61575;49.908;35.556;2024-02-26T14:45:19;100145.41;;;3.68;53.87
73338;BME280;61575;49.908;35.556;2024-02-26T14:48:21;100139.56;;;3.63;54.15
73338;BME280;61575;49.908;35.556;2024-02-26T14:51:23;100143.91;;;3.64;53.96
73338;BME280;61575;49.908;35.556;2024-02-26T14:54:25;100145.94;;;3.61;54.51
73338;BME280;61575;49.908;35.556;2024-02-26T14:57:27;100150.00;;;3.54;54.76
73338;BME280;61575;49.908;35.556;2024-02-26T15:00:30;100145.97;;;3.48;54.55
73338;BME280;61575;49.908;35.556;2024-02-26T15:03:35;100148.97;;;3.43;54.90
73338;BME280;61575;49.908;35.556;2024-02-26T15:06:38;100150.25;;;3.38;54.98
73338;BME280;61575;49.908;35.556;2024-02-26T15:09:41;100166.72;;;3.30;55.05
73338;BME280;61575;49.908;35.556;2024-02-26T15:12:43;100158.13;;;3.27;55.26
73338;BME280;61575;49.908;35.556;2024-02-26T15:15:45;100163.63;;;3.24;55.23
73338;BME280;61575;49.908;35.556;2024-02-26T15:18:48;100156.09;;;3.18;55.23
73338;BME280;61575;49.908;35.556;2024-02-26T15:21:50;100160.13;;;3.10;55.78
73338;BME280;61575;49.908;35.556;2024-02-26T15:24:52;100159.19;;;3.11;55.78
73338;BME280;61575;49.908;35.556;2024-02-26T15:27:54;100162.25;;;3.05;56.03
73338;BME280;61575;49.908;35.556;2024-02-26T15:30:57;100158.88;;;3.03;56.29
73338;BME280;61575;49.908;35.556;2024-02-26T15:33:59;100161.94;;;2.97;56.35
73338;BME280;61575;49.908;35.556;2024-02-26T15:37:02;100163.00;;;2.95;56.03
73338;BME280;61575;49.908;35.556;2024-02-26T15:40:05;100163.66;;;2.98;56.35
73338;BME280;61575;49.908;35.556;2024-02-26T15:43:08;100171.81;;;2.95;56.57
73338;BME280;61575;49.908;35.556;2024-02-26T15:46:15;100167.69;;;2.91;56.74
73338;BME280;61575;49.908;35.556;2024-02-26T15:49:17;100178.19;;;2.93;56.74
73338;BME280;61575;49.908;35.556;2024-02-26T15:52:19;100180.19;;;2.89;56.94